sensor_id;sensor_type;location;lat;lon;timestamp;P1;durP1;ratioP1;P2;durP2;ratioP2
12469;SDS011;36499;46.484;13.832;2023-01-30T00:01:25;8.87;;;4.80;;
12469;SDS011;36499;46.484;13.832;2023-01-30T00:03:56;8.73;;;4.53;;
12469;SDS011;36499;46.484;13.832;2023-01-30T00:06:23;9.23;;;4.60;;
12469;SDS011;36499;46.484;13.832;2023-01-30T00:08:51;6.67;;;3.70;;
12469;SDS011;36499;46.484;13.832;2023-01-30T00:11:18;6.20;;;3.60;;
12469;SDS011;36499;46.484;13.832;2023-01-30T00:13:46;7.03;;;3.53;;
12469;SDS011;36499;46.484;13.832;2023-01-30T00:16:15;4.93;;;2.80;;
12469;SDS011;36499;46.484;13.832;2023-01-30T00:18:43;6.83;;;3.90;;
12469;SDS011;36499;46.484;13.832;2023-01-30T00:21:12;6.60;;;3.13;;
12469;SDS011;36499;46.484;13.832;2023-01-30T00:23:40;5.37;;;3.27;;
12469;SDS011;36499;46.484;13.832;2023-01-30T00:26:09;5.87;;;3.30;;
12469;SDS011;36499;46.484;13.832;2023-01-30T00:28:37;6.60;;;3.43;;
12469;SDS011;36499;46.484;13.832;2023-01-30T00:31:05;6.97;;;3.57;;
12469;SDS011;36499;46.484;13.832;2023-01-30T00:33:32;5.83;;;3.13;;
12469;SDS011;36499;46.484;13.832;2023-01-30T00:36:03;5.17;;;3.00;;
12469;SDS011;36499;46.484;13.832;2023-01-30T00:38:33;6.70;;;3.17;;
12469;SDS011;36499;46.484;13.832;2023-01-30T00:41:00;5.13;;;2.87;;
12469;SDS011;36499;46.484;13.832;2023-01-30T00:43:27;5.50;;;3.23;;
12469;SDS011;36499;46.484;13.832;2023-01-30T00:46:14;4.70;;;3.00;;
12469;SDS011;36499;46.484;13.832;2023-01-30T00:49:03;5.17;;;3.27;;
12469;SDS011;36499;46.484;13.832;2023-01-30T00:51:30;4.00;;;2.60;;
12469;SDS011;36499;46.484;13.832;2023-01-30T00:53:59;7.73;;;2.90;;
12469;SDS011;36499;46.484;13.832;2023-01-30T00:56:26;3.73;;;2.60;;
12469;SDS011;36499;46.484;13.832;2023-01-30T00:58:53;8.53;;;3.40;;
12469;SDS011;36499;46.484;13.832;2023-01-30T01:01:20;5.27;;;3.10;;
12469;SDS011;36499;46.484;13.832;2023-01-30T01:03:47;6.73;;;3.27;;
12469;SDS011;36499;46.484;13.832;2023-01-30T01:06:14;5.43;;;3.30;;
12469;SDS011;36499;46.484;13.832;2023-01-30T01:08:41;8.03;;;3.60;;
12469;SDS011;36499;46.484;13.832;2023-01-30T01:11:10;6.67;;;3.10;;
12469;SDS011;36499;46.484;13.832;2023-01-30T01:13:48;6.20;;;3.80;;
12469;SDS011;36499;46.484;13.832;2023-01-30T01:16:19;6.90;;;3.57;;
12469;SDS011;36499;46.484;13.832;2023-01-30T01:18:47;4.80;;;3.33;;
12469;SDS011;36499;46.484;13.832;2023-01-30T01:21:14;9.73;;;3.37;;
12469;SDS011;36499;46.484;13.832;2023-01-30T01:23:42;6.30;;;3.07;;
12469;SDS011;36499;46.484;13.832;2023-01-30T01:26:11;6.27;;;3.63;;
12469;SDS011;36499;46.484;13.832;2023-01-30T01:28:38;4.83;;;2.70;;
12469;SDS011;36499;46.484;13.832;2023-01-30T01:31:08;5.80;;;2.93;;
12469;SDS011;36499;46.484;13.832;2023-01-30T01:33:36;6.00;;;3.10;;
12469;SDS011;36499;46.484;13.832;2023-01-30T01:36:04;7.60;;;4.30;;
12469;SDS011;36499;46.484;13.832;2023-01-30T01:38:32;13.60;;;8.13;;
12469;SDS011;36499;46.484;13.832;2023-01-30T01:41:00;12.20;;;5.90;;
12469;SDS011;36499;46.484;13.832;2023-01-30T01:43:28;10.17;;;5.70;;
12469;SDS011;36499;46.484;13.832;2023-01-30T01:45:59;8.27;;;5.13;;
12469;SDS011;36499;46.484;13.832;2023-01-30T01:48:34;11.07;;;5.63;;
12469;SDS011;36499;46.484;13.832;2023-01-30T01:51:10;5.90;;;4.20;;
12469;SDS011;36499;46.484;13.832;2023-01-30T01:53:45;13.67;;;7.53;;
12469;SDS011;36499;46.484;13.832;2023-01-30T01:56:20;4.83;;;2.60;;
12469;SDS011;36499;46.484;13.832;2023-01-30T01:58:51;6.00;;;2.60;;
12469;SDS011;36499;46.484;13.832;2023-01-30T02:01:25;4.43;;;2.57;;
12469;SDS011;36499;46.484;13.832;2023-01-30T02:03:55;3.63;;;2.53;;
12469;SDS011;36499;46.484;13.832;2023-01-30T02:06:28;3.37;;;2.40;;
12469;SDS011;36499;46.484;13.832;2023-01-30T02:08:58;3.47;;;2.50;;
12469;SDS011;36499;46.484;13.832;2023-01-30T02:11:32;3.17;;;2.37;;
12469;SDS011;36499;46.484;13.832;2023-01-30T02:14:09;3.00;;;2.13;;
12469;SDS011;36499;46.484;13.832;2023-01-30T02:16:39;3.97;;;2.17;;
12469;SDS011;36499;46.484;13.832;2023-01-30T02:19:12;4.57;;;2.30;;
12469;SDS011;36499;46.484;13.832;2023-01-30T02:22:14;4.20;;;2.20;;
12469;SDS011;36499;46.484;13.832;2023-01-30T02:25:37;3.23;;;2.13;;
12469;SDS011;36499;46.484;13.832;2023-01-30T02:32:35;3.53;;;2.30;;
12469;SDS011;36499;46.484;13.832;2023-01-30T02:35:16;3.27;;;2.20;;
12469;SDS011;36499;46.484;13.832;2023-01-30T02:37:59;6.97;;;3.63;;
12469;SDS011;36499;46.484;13.832;2023-01-30T02:40:47;6.37;;;3.47;;
12469;SDS011;36499;46.484;13.832;2023-01-30T02:43:27;6.27;;;3.23;;
12469;SDS011;36499;46.484;13.832;2023-01-30T02:46:07;4.43;;;2.57;;
12469;SDS011;36499;46.484;13.832;2023-01-30T02:48:43;5.60;;;3.00;;
12469;SDS011;36499;46.484;13.832;2023-01-30T02:51:17;2.77;;;1.90;;
12469;SDS011;36499;46.484;13.832;2023-01-30T02:53:48;2.93;;;1.90;;
12469;SDS011;36499;46.484;13.832;2023-01-30T02:56:16;4.27;;;1.90;;
12469;SDS011;36499;46.484;13.832;2023-01-30T02:58:44;4.33;;;2.10;;
12469;SDS011;36499;46.484;13.832;2023-01-30T03:04:35;3.30;;;2.37;;
12469;SDS011;36499;46.484;13.832;2023-01-30T03:07:35;2.90;;;2.10;;
12469;SDS011;36499;46.484;13.832;2023-01-30T03:10:15;2.83;;;1.83;;
12469;SDS011;36499;46.484;13.832;2023-01-30T03:12:56;3.17;;;1.97;;
12469;SDS011;36499;46.484;13.832;2023-01-30T03:15:33;2.67;;;1.93;;
12469;SDS011;36499;46.484;13.832;2023-01-30T03:18:07;3.07;;;2.10;;
12469;SDS011;36499;46.484;13.832;2023-01-30T03:20:36;3.33;;;2.17;;
12469;SDS011;36499;46.484;13.832;2023-01-30T03:23:06;4.53;;;2.33;;
12469;SDS011;36499;46.484;13.832;2023-01-30T03:25:34;4.00;;;2.23;;
12469;SDS011;36499;46.484;13.832;2023-01-30T03:28:06;2.17;;;1.80;;
12469;SDS011;36499;46.484;13.832;2023-01-30T03:30:36;2.93;;;2.10;;
12469;SDS011;36499;46.484;13.832;2023-01-30T03:33:03;3.73;;;2.20;;
12469;SDS011;36499;46.484;13.832;2023-01-30T03:35:30;3.00;;;1.80;;
12469;SDS011;36499;46.484;13.832;2023-01-30T03:37:58;4.43;;;1.97;;
12469;SDS011;36499;46.484;13.832;2023-01-30T03:40:26;3.57;;;2.10;;
12469;SDS011;36499;46.484;13.832;2023-01-30T03:42:54;4.77;;;1.83;;
12469;SDS011;36499;46.484;13.832;2023-01-30T03:45:21;4.13;;;2.83;;
12469;SDS011;36499;46.484;13.832;2023-01-30T03:47:48;6.63;;;4.07;;
12469;SDS011;36499;46.484;13.832;2023-01-30T03:50:16;2.13;;;1.63;;
12469;SDS011;36499;46.484;13.832;2023-01-30T03:52:43;3.50;;;2.30;;
12469;SDS011;36499;46.484;13.832;2023-01-30T03:55:11;6.10;;;2.00;;
12469;SDS011;36499;46.484;13.832;2023-01-30T03:57:39;4.57;;;2.80;;
12469;SDS011;36499;46.484;13.832;2023-01-30T04:00:06;8.67;;;4.07;;
12469;SDS011;36499;46.484;13.832;2023-01-30T04:02:35;4.27;;;2.77;;
12469;SDS011;36499;46.484;13.832;2023-01-30T04:05:03;4.90;;;3.70;;
12469;SDS011;36499;46.484;13.832;2023-01-30T04:07:31;4.67;;;3.13;;
12469;SDS011;36499;46.484;13.832;2023-01-30T04:09:58;2.67;;;1.80;;
12469;SDS011;36499;46.484;13.832;2023-01-30T04:12:26;4.27;;;1.90;;
12469;SDS011;36499;46.484;13.832;2023-01-30T04:14:53;2.73;;;1.70;;
12469;SDS011;36499;46.484;13.832;2023-01-30T04:17:21;3.23;;;1.80;;
12469;SDS011;36499;46.484;13.832;2023-01-30T04:19:48;4.10;;;2.47;;
12469;SDS011;36499;46.484;13.832;2023-01-30T04:22:15;3.60;;;2.73;;
12469;SDS011;36499;46.484;13.832;2023-01-30T04:24:42;4.07;;;2.90;;
12469;SDS011;36499;46.484;13.832;2023-01-30T04:27:09;4.80;;;3.00;;
12469;SDS011;36499;46.484;13.832;2023-01-30T04:29:37;3.60;;;2.50;;
12469;SDS011;36499;46.484;13.832;2023-01-30T04:32:04;6.23;;;2.50;;
12469;SDS011;36499;46.484;13.832;2023-01-30T04:34:31;2.83;;;2.00;;
12469;SDS011;36499;46.484;13.832;2023-01-30T04:36:59;2.90;;;1.83;;
12469;SDS011;36499;46.484;13.832;2023-01-30T04:39:26;3.00;;;2.13;;
12469;SDS011;36499;46.484;13.832;2023-01-30T04:41:53;3.33;;;1.87;;
12469;SDS011;36499;46.484;13.832;2023-01-30T04:44:20;5.30;;;3.90;;
12469;SDS011;36499;46.484;13.832;2023-01-30T04:46:48;3.43;;;2.17;;
12469;SDS011;36499;46.484;13.832;2023-01-30T04:49:16;2.40;;;1.80;;
12469;SDS011;36499;46.484;13.832;2023-01-30T04:51:43;2.90;;;2.07;;
12469;SDS011;36499;46.484;13.832;2023-01-30T04:54:10;3.57;;;2.77;;
12469;SDS011;36499;46.484;13.832;2023-01-30T04:56:37;3.63;;;2.67;;
12469;SDS011;36499;46.484;13.832;2023-01-30T04:59:04;5.03;;;3.47;;
12469;SDS011;36499;46.484;13.832;2023-01-30T05:01:32;3.27;;;2.43;;
12469;SDS011;36499;46.484;13.832;2023-01-30T05:04:03;3.20;;;2.50;;
12469;SDS011;36499;46.484;13.832;2023-01-30T05:06:32;2.63;;;2.03;;
12469;SDS011;36499;46.484;13.832;2023-01-30T05:09:00;4.70;;;2.97;;
12469;SDS011;36499;46.484;13.832;2023-01-30T05:11:29;4.57;;;3.80;;
12469;SDS011;36499;46.484;13.832;2023-01-30T05:13:57;6.30;;;3.30;;
12469;SDS011;36499;46.484;13.832;2023-01-30T05:16:24;3.70;;;3.27;;
12469;SDS011;36499;46.484;13.832;2023-01-30T05:18:52;4.87;;;3.80;;
12469;SDS011;36499;46.484;13.832;2023-01-30T05:21:21;3.00;;;2.53;;
12469;SDS011;36499;46.484;13.832;2023-01-30T05:23:52;2.40;;;1.90;;
12469;SDS011;36499;46.484;13.832;2023-01-30T05:26:20;5.03;;;2.83;;
12469;SDS011;36499;46.484;13.832;2023-01-30T05:28:49;3.87;;;1.67;;
12469;SDS011;36499;46.484;13.832;2023-01-30T05:31:18;3.37;;;1.60;;
12469;SDS011;36499;46.484;13.832;2023-01-30T05:33:45;4.33;;;1.60;;
12469;SDS011;36499;46.484;13.832;2023-01-30T05:36:14;3.20;;;1.77;;
12469;SDS011;36499;46.484;13.832;2023-01-30T05:38:45;3.00;;;1.73;;
12469;SDS011;36499;46.484;13.832;2023-01-30T05:41:13;2.77;;;1.90;;
12469;SDS011;36499;46.484;13.832;2023-01-30T05:43:41;3.33;;;1.80;;
12469;SDS011;36499;46.484;13.832;2023-01-30T05:46:10;2.73;;;2.00;;
12469;SDS011;36499;46.484;13.832;2023-01-30T05:48:38;3.87;;;2.20;;
12469;SDS011;36499;46.484;13.832;2023-01-30T05:51:05;2.67;;;1.80;;
12469;SDS011;36499;46.484;13.832;2023-01-30T05:53:40;3.43;;;1.80;;
12469;SDS011;36499;46.484;13.832;2023-01-30T05:56:08;4.70;;;2.13;;
12469;SDS011;36499;46.484;13.832;2023-01-30T05:58:35;4.43;;;2.00;;
12469;SDS011;36499;46.484;13.832;2023-01-30T06:01:04;3.20;;;1.70;;
12469;SDS011;36499;46.484;13.832;2023-01-30T06:03:34;4.03;;;2.00;;
12469;SDS011;36499;46.484;13.832;2023-01-30T06:06:01;4.17;;;2.33;;
12469;SDS011;36499;46.484;13.832;2023-01-30T06:08:30;6.17;;;2.10;;
12469;SDS011;36499;46.484;13.832;2023-01-30T06:10:58;3.83;;;1.93;;
12469;SDS011;36499;46.484;13.832;2023-01-30T06:13:28;4.03;;;2.30;;
12469;SDS011;36499;46.484;13.832;2023-01-30T06:15:55;4.57;;;1.93;;
12469;SDS011;36499;46.484;13.832;2023-01-30T06:18:22;2.87;;;1.87;;
12469;SDS011;36499;46.484;13.832;2023-01-30T06:20:50;2.33;;;1.70;;
12469;SDS011;36499;46.484;13.832;2023-01-30T06:23:18;3.53;;;2.00;;
12469;SDS011;36499;46.484;13.832;2023-01-30T06:25:47;3.93;;;2.20;;
12469;SDS011;36499;46.484;13.832;2023-01-30T06:28:17;2.10;;;1.50;;
12469;SDS011;36499;46.484;13.832;2023-01-30T06:30:46;3.73;;;1.90;;
12469;SDS011;36499;46.484;13.832;2023-01-30T06:33:13;2.47;;;1.80;;
12469;SDS011;36499;46.484;13.832;2023-01-30T06:35:41;2.10;;;1.50;;
12469;SDS011;36499;46.484;13.832;2023-01-30T06:38:09;2.73;;;1.93;;
12469;SDS011;36499;46.484;13.832;2023-01-30T06:40:38;2.60;;;1.90;;
12469;SDS011;36499;46.484;13.832;2023-01-30T06:43:09;2.50;;;1.60;;
12469;SDS011;36499;46.484;13.832;2023-01-30T06:45:36;2.43;;;1.50;;
12469;SDS011;36499;46.484;13.832;2023-01-30T06:48:05;2.73;;;1.70;;
12469;SDS011;36499;46.484;13.832;2023-01-30T06:50:33;2.63;;;1.83;;
12469;SDS011;36499;46.484;13.832;2023-01-30T06:53:01;2.63;;;1.87;;
12469;SDS011;36499;46.484;13.832;2023-01-30T06:55:31;2.30;;;1.63;;
12469;SDS011;36499;46.484;13.832;2023-01-30T06:58:01;3.40;;;2.30;;
12469;SDS011;36499;46.484;13.832;2023-01-30T07:00:30;5.03;;;1.87;;
12469;SDS011;36499;46.484;13.832;2023-01-30T07:02:58;2.67;;;2.07;;
12469;SDS011;36499;46.484;13.832;2023-01-30T07:05:27;3.30;;;2.23;;
12469;SDS011;36499;46.484;13.832;2023-01-30T07:07:54;4.83;;;2.27;;
12469;SDS011;36499;46.484;13.832;2023-01-30T07:10:21;4.17;;;2.30;;
12469;SDS011;36499;46.484;13.832;2023-01-30T07:12:50;4.87;;;3.13;;
12469;SDS011;36499;46.484;13.832;2023-01-30T07:15:18;4.27;;;2.97;;
12469;SDS011;36499;46.484;13.832;2023-01-30T07:17:46;3.73;;;2.70;;
12469;SDS011;36499;46.484;13.832;2023-01-30T07:20:13;4.80;;;2.60;;
12469;SDS011;36499;46.484;13.832;2023-01-30T07:22:42;3.47;;;2.27;;
12469;SDS011;36499;46.484;13.832;2023-01-30T07:25:16;4.70;;;1.97;;
12469;SDS011;36499;46.484;13.832;2023-01-30T07:27:48;4.13;;;3.50;;
12469;SDS011;36499;46.484;13.832;2023-01-30T07:30:16;6.03;;;4.50;;
12469;SDS011;36499;46.484;13.832;2023-01-30T07:32:47;6.57;;;3.97;;
12469;SDS011;36499;46.484;13.832;2023-01-30T07:35:15;4.10;;;3.10;;
12469;SDS011;36499;46.484;13.832;2023-01-30T07:37:45;5.07;;;3.03;;
12469;SDS011;36499;46.484;13.832;2023-01-30T07:40:12;2.50;;;1.77;;
12469;SDS011;36499;46.484;13.832;2023-01-30T07:42:40;2.53;;;2.20;;
12469;SDS011;36499;46.484;13.832;2023-01-30T07:45:08;3.03;;;2.03;;
12469;SDS011;36499;46.484;13.832;2023-01-30T07:47:36;2.17;;;1.70;;
12469;SDS011;36499;46.484;13.832;2023-01-30T07:50:04;3.00;;;1.87;;
12469;SDS011;36499;46.484;13.832;2023-01-30T07:52:33;5.23;;;3.93;;
12469;SDS011;36499;46.484;13.832;2023-01-30T07:55:01;5.43;;;3.50;;
12469;SDS011;36499;46.484;13.832;2023-01-30T07:57:29;1.97;;;1.57;;
12469;SDS011;36499;46.484;13.832;2023-01-30T07:59:56;4.47;;;2.70;;
12469;SDS011;36499;46.484;13.832;2023-01-30T08:02:23;5.47;;;3.00;;
12469;SDS011;36499;46.484;13.832;2023-01-30T08:04:50;4.43;;;2.43;;
12469;SDS011;36499;46.484;13.832;2023-01-30T08:07:17;6.03;;;3.60;;
12469;SDS011;36499;46.484;13.832;2023-01-30T08:09:44;5.17;;;2.30;;
12469;SDS011;36499;46.484;13.832;2023-01-30T08:12:13;1.90;;;1.50;;
12469;SDS011;36499;46.484;13.832;2023-01-30T08:14:40;4.47;;;2.40;;
12469;SDS011;36499;46.484;13.832;2023-01-30T08:17:07;4.17;;;2.80;;
12469;SDS011;36499;46.484;13.832;2023-01-30T08:19:34;8.17;;;3.70;;
12469;SDS011;36499;46.484;13.832;2023-01-30T08:22:01;8.23;;;3.50;;
12469;SDS011;36499;46.484;13.832;2023-01-30T08:24:28;2.80;;;1.50;;
12469;SDS011;36499;46.484;13.832;2023-01-30T08:26:55;4.13;;;2.10;;
12469;SDS011;36499;46.484;13.832;2023-01-30T08:29:26;1.90;;;1.60;;
12469;SDS011;36499;46.484;13.832;2023-01-30T08:31:55;2.77;;;1.70;;
12469;SDS011;36499;46.484;13.832;2023-01-30T08:34:23;1.57;;;1.20;;
12469;SDS011;36499;46.484;13.832;2023-01-30T08:36:50;1.83;;;1.60;;
12469;SDS011;36499;46.484;13.832;2023-01-30T08:39:18;3.57;;;1.70;;
12469;SDS011;36499;46.484;13.832;2023-01-30T08:41:45;2.07;;;1.40;;
12469;SDS011;36499;46.484;13.832;2023-01-30T08:44:12;2.03;;;1.40;;
12469;SDS011;36499;46.484;13.832;2023-01-30T08:46:41;4.00;;;2.20;;
12469;SDS011;36499;46.484;13.832;2023-01-30T08:49:09;5.90;;;2.40;;
12469;SDS011;36499;46.484;13.832;2023-01-30T08:51:37;4.10;;;2.10;;
12469;SDS011;36499;46.484;13.832;2023-01-30T08:54:04;4.60;;;2.77;;
12469;SDS011;36499;46.484;13.832;2023-01-30T08:56:32;4.40;;;3.60;;
12469;SDS011;36499;46.484;13.832;2023-01-30T08:59:00;3.37;;;2.23;;
12469;SDS011;36499;46.484;13.832;2023-01-30T09:01:27;3.40;;;2.40;;
12469;SDS011;36499;46.484;13.832;2023-01-30T09:03:55;2.93;;;1.97;;
12469;SDS011;36499;46.484;13.832;2023-01-30T09:06:23;2.97;;;2.00;;
12469;SDS011;36499;46.484;13.832;2023-01-30T09:08:51;2.77;;;1.60;;
12469;SDS011;36499;46.484;13.832;2023-01-30T09:11:18;2.20;;;1.80;;
12469;SDS011;36499;46.484;13.832;2023-01-30T09:13:45;3.93;;;1.87;;
12469;SDS011;36499;46.484;13.832;2023-01-30T09:16:12;3.63;;;1.70;;
12469;SDS011;36499;46.484;13.832;2023-01-30T09:18:40;1.90;;;1.57;;
12469;SDS011;36499;46.484;13.832;2023-01-30T09:21:10;4.47;;;1.93;;
12469;SDS011;36499;46.484;13.832;2023-01-30T09:23:39;4.73;;;2.37;;
12469;SDS011;36499;46.484;13.832;2023-01-30T09:26:06;2.87;;;1.70;;
12469;SDS011;36499;46.484;13.832;2023-01-30T09:28:34;2.67;;;1.93;;
12469;SDS011;36499;46.484;13.832;2023-01-30T09:31:01;4.73;;;2.50;;
12469;SDS011;36499;46.484;13.832;2023-01-30T09:33:29;8.23;;;4.03;;
12469;SDS011;36499;46.484;13.832;2023-01-30T09:35:56;5.17;;;2.13;;
12469;SDS011;36499;46.484;13.832;2023-01-30T09:38:25;2.30;;;1.80;;
12469;SDS011;36499;46.484;13.832;2023-01-30T09:40:58;2.63;;;1.57;;
12469;SDS011;36499;46.484;13.832;2023-01-30T09:43:59;6.07;;;2.73;;
12469;SDS011;36499;46.484;13.832;2023-01-30T09:46:45;8.97;;;3.63;;
12469;SDS011;36499;46.484;13.832;2023-01-30T09:49:23;5.57;;;2.40;;
12469;SDS011;36499;46.484;13.832;2023-01-30T09:52:03;3.47;;;2.10;;
12469;SDS011;36499;46.484;13.832;2023-01-30T09:54:49;4.83;;;2.47;;
12469;SDS011;36499;46.484;13.832;2023-01-30T09:57:24;7.03;;;2.67;;
12469;SDS011;36499;46.484;13.832;2023-01-30T09:59:54;2.90;;;1.77;;
12469;SDS011;36499;46.484;13.832;2023-01-30T10:02:30;3.10;;;1.90;;
12469;SDS011;36499;46.484;13.832;2023-01-30T10:05:12;4.47;;;2.70;;
12469;SDS011;36499;46.484;13.832;2023-01-30T10:07:48;4.67;;;2.83;;
12469;SDS011;36499;46.484;13.832;2023-01-30T10:10:37;4.63;;;3.07;;
12469;SDS011;36499;46.484;13.832;2023-01-30T10:13:19;3.90;;;2.10;;
12469;SDS011;36499;46.484;13.832;2023-01-30T10:16:05;3.70;;;2.30;;
12469;SDS011;36499;46.484;13.832;2023-01-30T10:18:53;4.73;;;1.97;;
12469;SDS011;36499;46.484;13.832;2023-01-30T10:21:39;2.33;;;1.50;;
12469;SDS011;36499;46.484;13.832;2023-01-30T10:24:18;2.60;;;2.10;;
12469;SDS011;36499;46.484;13.832;2023-01-30T10:27:08;2.47;;;1.73;;
12469;SDS011;36499;46.484;13.832;2023-01-30T10:29:41;4.90;;;2.03;;
12469;SDS011;36499;46.484;13.832;2023-01-30T10:32:18;4.30;;;2.03;;
12469;SDS011;36499;46.484;13.832;2023-01-30T10:34:54;9.10;;;2.20;;
12469;SDS011;36499;46.484;13.832;2023-01-30T10:37:30;9.23;;;2.13;;
12469;SDS011;36499;46.484;13.832;2023-01-30T10:40:12;15.20;;;3.93;;
12469;SDS011;36499;46.484;13.832;2023-01-30T10:42:51;5.77;;;2.27;;
12469;SDS011;36499;46.484;13.832;2023-01-30T10:45:30;3.30;;;1.50;;
12469;SDS011;36499;46.484;13.832;2023-01-30T10:48:15;1.90;;;1.20;;
12469;SDS011;36499;46.484;13.832;2023-01-30T10:51:04;2.40;;;1.20;;
12469;SDS011;36499;46.484;13.832;2023-01-30T10:53:44;4.50;;;1.20;;
12469;SDS011;36499;46.484;13.832;2023-01-30T10:56:19;5.97;;;1.90;;
12469;SDS011;36499;46.484;13.832;2023-01-30T10:59:02;3.53;;;2.00;;
12469;SDS011;36499;46.484;13.832;2023-01-30T11:01:46;4.37;;;2.10;;
12469;SDS011;36499;46.484;13.832;2023-01-30T11:04:28;1.40;;;1.20;;
12469;SDS011;36499;46.484;13.832;2023-01-30T11:07:03;1.33;;;1.10;;
12469;SDS011;36499;46.484;13.832;2023-01-30T11:09:38;1.27;;;1.13;;
12469;SDS011;36499;46.484;13.832;2023-01-30T11:12:07;0.80;;;0.80;;
12469;SDS011;36499;46.484;13.832;2023-01-30T11:14:56;0.80;;;0.80;;
12469;SDS011;36499;46.484;13.832;2023-01-30T11:17:29;1.40;;;0.93;;
12469;SDS011;36499;46.484;13.832;2023-01-30T11:20:01;10.17;;;1.90;;
12469;SDS011;36499;46.484;13.832;2023-01-30T11:22:37;1.67;;;1.00;;
12469;SDS011;36499;46.484;13.832;2023-01-30T11:25:13;2.63;;;0.90;;
12469;SDS011;36499;46.484;13.832;2023-01-30T11:27:49;2.03;;;0.90;;
12469;SDS011;36499;46.484;13.832;2023-01-30T11:30:22;5.30;;;1.10;;
12469;SDS011;36499;46.484;13.832;2023-01-30T11:33:03;1.00;;;0.90;;
12469;SDS011;36499;46.484;13.832;2023-01-30T11:35:37;0.60;;;0.60;;
12469;SDS011;36499;46.484;13.832;2023-01-30T11:38:19;2.00;;;0.90;;
12469;SDS011;36499;46.484;13.832;2023-01-30T11:40:49;1.30;;;0.80;;
12469;SDS011;36499;46.484;13.832;2023-01-30T11:43:31;0.60;;;0.60;;
12469;SDS011;36499;46.484;13.832;2023-01-30T11:46:00;0.80;;;0.80;;
12469;SDS011;36499;46.484;13.832;2023-01-30T11:48:29;0.60;;;0.60;;
12469;SDS011;36499;46.484;13.832;2023-01-30T11:51:00;0.60;;;0.60;;
12469;SDS011;36499;46.484;13.832;2023-01-30T11:53:32;1.23;;;0.73;;
12469;SDS011;36499;46.484;13.832;2023-01-30T11:56:04;0.60;;;0.60;;
12469;SDS011;36499;46.484;13.832;2023-01-30T11:58:38;9.47;;;1.47;;
12469;SDS011;36499;46.484;13.832;2023-01-30T12:01:11;9.67;;;1.60;;
12469;SDS011;36499;46.484;13.832;2023-01-30T12:03:43;1.10;;;1.00;;
12469;SDS011;36499;46.484;13.832;2023-01-30T12:06:27;0.87;;;0.50;;
12469;SDS011;36499;46.484;13.832;2023-01-30T12:08:58;0.60;;;0.60;;
12469;SDS011;36499;46.484;13.832;2023-01-30T12:11:27;1.20;;;0.60;;
12469;SDS011;36499;46.484;13.832;2023-01-30T12:14:13;2.37;;;0.67;;
12469;SDS011;36499;46.484;13.832;2023-01-30T12:16:55;6.93;;;1.73;;
12469;SDS011;36499;46.484;13.832;2023-01-30T12:19:35;5.07;;;1.63;;
12469;SDS011;36499;46.484;13.832;2023-01-30T12:22:18;5.03;;;2.33;;
12469;SDS011;36499;46.484;13.832;2023-01-30T12:24:59;1.07;;;0.87;;
12469;SDS011;36499;46.484;13.832;2023-01-30T12:27:36;0.80;;;0.80;;
12469;SDS011;36499;46.484;13.832;2023-01-30T12:30:21;0.83;;;0.83;;
12469;SDS011;36499;46.484;13.832;2023-01-30T12:33:02;1.73;;;0.83;;
12469;SDS011;36499;46.484;13.832;2023-01-30T12:35:36;0.83;;;0.50;;
12469;SDS011;36499;46.484;13.832;2023-01-30T12:41:17;2.47;;;1.30;;
12469;SDS011;36499;46.484;13.832;2023-01-30T12:47:04;3.47;;;2.40;;
12469;SDS011;36499;46.484;13.832;2023-01-30T12:49:58;1.73;;;1.00;;
12469;SDS011;36499;46.484;13.832;2023-01-30T12:52:57;8.93;;;5.77;;
12469;SDS011;36499;46.484;13.832;2023-01-30T12:55:54;3.27;;;1.87;;
12469;SDS011;36499;46.484;13.832;2023-01-30T12:58:45;1.10;;;1.00;;
12469;SDS011;36499;46.484;13.832;2023-01-30T13:01:24;1.80;;;1.07;;
12469;SDS011;36499;46.484;13.832;2023-01-30T13:04:08;0.97;;;0.77;;
12469;SDS011;36499;46.484;13.832;2023-01-30T13:06:53;0.87;;;0.80;;
12469;SDS011;36499;46.484;13.832;2023-01-30T13:12:36;1.87;;;0.90;;
12469;SDS011;36499;46.484;13.832;2023-01-30T13:15:16;1.53;;;1.00;;
12469;SDS011;36499;46.484;13.832;2023-01-30T13:17:53;3.03;;;2.00;;
12469;SDS011;36499;46.484;13.832;2023-01-30T13:20:38;1.10;;;0.80;;
12469;SDS011;36499;46.484;13.832;2023-01-30T13:23:26;0.70;;;0.70;;
12469;SDS011;36499;46.484;13.832;2023-01-30T13:26:09;1.23;;;0.80;;
12469;SDS011;36499;46.484;13.832;2023-01-30T13:28:44;0.70;;;0.70;;
12469;SDS011;36499;46.484;13.832;2023-01-30T13:31:15;1.97;;;1.07;;
12469;SDS011;36499;46.484;13.832;2023-01-30T13:33:48;3.43;;;1.40;;
12469;SDS011;36499;46.484;13.832;2023-01-30T13:36:28;0.77;;;0.77;;
12469;SDS011;36499;46.484;13.832;2023-01-30T13:39:08;3.70;;;0.93;;
12469;SDS011;36499;46.484;13.832;2023-01-30T13:41:41;0.60;;;0.60;;
12469;SDS011;36499;46.484;13.832;2023-01-30T13:44:19;0.53;;;0.53;;
12469;SDS011;36499;46.484;13.832;2023-01-30T13:46:51;0.90;;;0.70;;
12469;SDS011;36499;46.484;13.832;2023-01-30T13:49:23;0.53;;;0.53;;
12469;SDS011;36499;46.484;13.832;2023-01-30T13:52:01;0.60;;;0.60;;
12469;SDS011;36499;46.484;13.832;2023-01-30T13:54:41;0.63;;;0.63;;
12469;SDS011;36499;46.484;13.832;2023-01-30T13:57:23;1.33;;;0.90;;
12469;SDS011;36499;46.484;13.832;2023-01-30T14:00:19;0.67;;;0.60;;
12469;SDS011;36499;46.484;13.832;2023-01-30T14:03:21;1.40;;;1.30;;
12469;SDS011;36499;46.484;13.832;2023-01-30T14:06:00;1.40;;;1.10;;
12469;SDS011;36499;46.484;13.832;2023-01-30T14:09:04;1.80;;;1.03;;
12469;SDS011;36499;46.484;13.832;2023-01-30T14:11:48;6.10;;;2.00;;
12469;SDS011;36499;46.484;13.832;2023-01-30T14:14:26;1.67;;;0.87;;
12469;SDS011;36499;46.484;13.832;2023-01-30T14:16:57;0.80;;;0.80;;
12469;SDS011;36499;46.484;13.832;2023-01-30T14:19:38;1.93;;;0.97;;
12469;SDS011;36499;46.484;13.832;2023-01-30T14:22:22;7.07;;;3.50;;
12469;SDS011;36499;46.484;13.832;2023-01-30T14:37:26;0.80;;;0.80;;
12469;SDS011;36499;46.484;13.832;2023-01-30T14:49:25;2.77;;;1.10;;
12469;SDS011;36499;46.484;13.832;2023-01-30T14:51:58;3.20;;;1.53;;
12469;SDS011;36499;46.484;13.832;2023-01-30T14:54:29;2.97;;;1.00;;
12469;SDS011;36499;46.484;13.832;2023-01-30T14:57:04;1.53;;;1.03;;
12469;SDS011;36499;46.484;13.832;2023-01-30T14:59:46;1.53;;;1.23;;
12469;SDS011;36499;46.484;13.832;2023-01-30T15:02:24;1.30;;;1.20;;
12469;SDS011;36499;46.484;13.832;2023-01-30T15:04:55;2.73;;;1.60;;
12469;SDS011;36499;46.484;13.832;2023-01-30T15:07:31;2.20;;;1.47;;
12469;SDS011;36499;46.484;13.832;2023-01-30T15:10:12;1.40;;;1.30;;
12469;SDS011;36499;46.484;13.832;2023-01-30T15:13:13;2.67;;;1.30;;
12469;SDS011;36499;46.484;13.832;2023-01-30T15:15:59;1.87;;;1.33;;
12469;SDS011;36499;46.484;13.832;2023-01-30T15:18:45;2.93;;;1.50;;
12469;SDS011;36499;46.484;13.832;2023-01-30T15:21:33;7.83;;;2.80;;
12469;SDS011;36499;46.484;13.832;2023-01-30T15:24:37;8.50;;;6.03;;
12469;SDS011;36499;46.484;13.832;2023-01-30T15:28:02;24.63;;;14.53;;
12469;SDS011;36499;46.484;13.832;2023-01-30T15:30:47;18.43;;;10.63;;
12469;SDS011;36499;46.484;13.832;2023-01-30T15:33:33;17.30;;;10.50;;
12469;SDS011;36499;46.484;13.832;2023-01-30T15:36:23;8.70;;;4.10;;
12469;SDS011;36499;46.484;13.832;2023-01-30T15:38:57;5.77;;;2.80;;
12469;SDS011;36499;46.484;13.832;2023-01-30T15:41:27;9.70;;;3.63;;
12469;SDS011;36499;46.484;13.832;2023-01-30T15:44:04;9.77;;;4.97;;
12469;SDS011;36499;46.484;13.832;2023-01-30T15:47:16;2.13;;;1.67;;
12469;SDS011;36499;46.484;13.832;2023-01-30T15:50:09;1.90;;;1.60;;